createdAt,value
2018-06-10T00:00:34.190Z,28.33
2018-06-10T00:03:02.504Z,21.83
2018-06-10T00:05:30.843Z,20.90
2018-06-10T00:07:59.162Z,22.80
2018-06-10T00:10:27.509Z,21.23
2018-06-10T00:12:55.825Z,23.00
2018-06-10T00:15:24.153Z,28.97
2018-06-10T00:17:52.473Z,22.50
2018-06-10T00:20:20.807Z,21.60
2018-06-10T00:22:49.125Z,32.33
2018-06-10T00:25:17.473Z,28.10
2018-06-10T00:27:45.785Z,24.03
2018-06-10T00:30:14.102Z,23.23
2018-06-10T00:32:42.441Z,32.13
2018-06-10T00:35:10.762Z,22.73
2018-06-10T00:37:39.089Z,18.53
2018-06-10T00:40:07.411Z,24.03
2018-06-10T00:42:35.501Z,18.60
2018-06-10T00:45:03.849Z,22.90
2018-06-10T00:47:32.193Z,20.80
2018-06-10T00:50:00.513Z,23.10
2018-06-10T00:52:28.841Z,20.07
2018-06-10T00:54:57.149Z,24.03
2018-06-10T00:57:25.495Z,31.53
2018-06-10T00:59:53.819Z,35.87
2018-06-10T01:02:22.175Z,26.13
2018-06-10T01:04:50.489Z,22.27
2018-06-10T01:07:18.825Z,27.47
2018-06-10T01:09:47.156Z,23.50
2018-06-10T01:12:15.489Z,22.60
2018-06-10T01:14:43.797Z,17.80
2018-06-10T01:17:12.125Z,26.03
2018-06-10T01:19:41.345Z,17.83
2018-06-10T01:22:09.673Z,28.33
2018-06-10T01:24:37.990Z,28.87
2018-06-10T01:27:06.321Z,18.40
2018-06-10T01:29:34.677Z,21.93
2018-06-10T01:32:03.014Z,20.57
2018-06-10T01:34:31.330Z,20.13
2018-06-10T01:36:59.637Z,19.77
2018-06-10T01:39:27.964Z,28.87
2018-06-10T01:41:56.293Z,30.50
2018-06-10T01:44:24.628Z,35.43
2018-06-10T01:46:52.952Z,25.37
2018-06-10T01:49:21.293Z,28.60
2018-06-10T01:51:49.614Z,18.30
2018-06-10T01:54:17.958Z,37.50
2018-06-10T01:56:46.279Z,23.67
2018-06-10T01:59:14.629Z,29.57
2018-06-10T02:01:42.945Z,30.70
2018-06-10T02:04:11.285Z,19.50
2018-06-10T02:06:39.604Z,30.63
2018-06-10T02:09:07.967Z,23.90
2018-06-10T02:11:37.663Z,21.80
2018-06-10T02:14:06.097Z,29.90
2018-06-10T02:16:34.424Z,21.43
2018-06-10T02:19:02.769Z,21.43
2018-06-10T02:21:30.834Z,35.83
2018-06-10T02:23:59.173Z,30.17
2018-06-10T02:26:27.481Z,25.13
2018-06-10T02:28:55.825Z,27.10
2018-06-10T02:31:24.141Z,34.03
2018-06-10T02:33:52.482Z,21.30
2018-06-10T02:36:20.850Z,20.43
2018-06-10T02:38:49.194Z,21.63
2018-06-10T02:41:17.512Z,24.70
2018-06-10T02:43:45.853Z,26.83
2018-06-10T02:46:14.177Z,18.77
2018-06-10T02:48:42.513Z,19.50
2018-06-10T02:51:10.838Z,21.43
2018-06-10T02:53:39.191Z,20.53
2018-06-10T02:56:07.514Z,23.87
2018-06-10T02:58:35.829Z,17.47
2018-06-10T03:01:04.165Z,18.73
2018-06-10T03:03:32.480Z,20.10
2018-06-10T03:06:00.809Z,17.20
2018-06-10T03:08:29.117Z,28.20
2018-06-10T03:10:57.468Z,18.13
2018-06-10T03:13:25.778Z,27.77
2018-06-10T03:15:54.105Z,16.13
2018-06-10T03:18:22.435Z,19.53
2018-06-10T03:20:50.765Z,20.27
2018-06-10T03:23:19.079Z,27.50
2018-06-10T03:25:47.413Z,30.17
2018-06-10T03:28:15.730Z,26.90
2018-06-10T03:30:44.061Z,22.00
2018-06-10T03:33:12.369Z,31.00
2018-06-10T03:35:40.705Z,22.47
2018-06-10T03:38:09.022Z,38.57
2018-06-10T03:40:37.352Z,32.47
2018-06-10T03:43:05.685Z,27.23
2018-06-10T03:45:34.033Z,21.73
2018-06-10T03:48:02.357Z,32.87
2018-06-10T03:50:30.693Z,23.10
2018-06-10T03:52:59.014Z,30.33
2018-06-10T03:55:27.341Z,29.43
2018-06-10T03:57:55.670Z,22.57
2018-06-10T04:00:24.030Z,21.00
2018-06-10T04:02:52.340Z,20.23
2018-06-10T04:05:20.685Z,34.63
2018-06-10T04:07:48.998Z,23.20
2018-06-10T04:10:17.357Z,27.43
2018-06-10T04:12:45.672Z,19.97
2018-06-10T04:15:14.022Z,17.40
2018-06-10T04:17:42.334Z,20.00
2018-06-10T04:20:10.645Z,17.87
2018-06-10T04:22:38.996Z,19.10
2018-06-10T04:25:07.317Z,21.03
2018-06-10T04:27:35.673Z,14.43
2018-06-10T04:30:03.993Z,15.60
2018-06-10T04:32:32.349Z,22.13
2018-06-10T04:35:00.657Z,15.83
2018-06-10T04:37:29.014Z,18.47
2018-06-10T04:39:57.333Z,20.00
2018-06-10T04:42:25.669Z,19.23
2018-06-10T04:44:53.990Z,22.37
2018-06-10T04:47:22.599Z,24.47
2018-06-10T04:49:50.904Z,23.00
2018-06-10T04:52:19.506Z,16.80
2018-06-10T04:54:47.838Z,17.93
2018-06-10T04:57:16.165Z,23.07
2018-06-10T04:59:44.477Z,16.60
2018-06-10T05:02:12.804Z,27.47
2018-06-10T05:04:41.111Z,20.63
2018-06-10T05:07:09.454Z,14.90
2018-06-10T05:09:37.789Z,16.03
2018-06-10T05:12:06.117Z,27.03
2018-06-10T05:14:34.430Z,22.63
2018-06-10T05:17:02.762Z,19.60
2018-06-10T05:19:31.097Z,26.67
2018-06-10T05:21:59.446Z,23.27
2018-06-10T05:24:27.508Z,22.63
2018-06-10T05:26:55.843Z,24.63
2018-06-10T05:29:24.149Z,21.57
2018-06-10T05:31:52.478Z,26.17
2018-06-10T05:34:20.790Z,18.63
2018-06-10T05:36:49.109Z,20.03
2018-06-10T05:39:17.439Z,19.50
2018-06-10T05:41:45.740Z,17.20
2018-06-10T05:44:14.074Z,23.00
2018-06-10T05:46:42.385Z,26.40
2018-06-10T05:49:10.708Z,25.73
2018-06-10T05:51:39.017Z,33.00
2018-06-10T05:54:07.348Z,20.93
2018-06-10T05:56:35.708Z,21.60
2018-06-10T05:59:04.041Z,23.03
2018-06-10T06:01:32.349Z,18.33
2018-06-10T06:04:00.764Z,14.80
2018-06-10T06:06:29.109Z,11.53
2018-06-10T06:08:57.456Z,14.17
2018-06-10T06:11:25.809Z,14.87
2018-06-10T06:13:54.144Z,13.87
2018-06-10T06:16:22.447Z,23.87
2018-06-10T06:18:50.777Z,29.67
2018-06-10T06:21:19.099Z,23.37
2018-06-10T06:23:47.425Z,18.00
2018-06-10T06:26:15.729Z,21.47
2018-06-10T06:28:44.053Z,21.77
2018-06-10T06:31:12.362Z,17.43
2018-06-10T06:33:40.709Z,24.03
2018-06-10T06:36:09.024Z,14.73
2018-06-10T06:38:37.349Z,18.73
2018-06-10T06:41:05.669Z,19.33
2018-06-10T06:43:34.001Z,19.20
2018-06-10T06:46:02.310Z,16.50
2018-06-10T06:48:30.642Z,17.80
2018-06-10T06:50:58.945Z,17.70
2018-06-10T06:53:27.281Z,21.57
2018-06-10T06:55:55.594Z,21.53
2018-06-10T06:58:23.953Z,22.60
2018-06-10T07:00:52.297Z,13.70
2018-06-10T07:03:20.612Z,20.03
2018-06-10T07:05:48.949Z,33.17
2018-06-10T07:08:17.299Z,17.53
2018-06-10T07:11:36.101Z,23.13
2018-06-10T07:14:04.493Z,15.93
2018-06-10T07:16:32.821Z,21.00
2018-06-10T07:19:01.145Z,16.37
2018-06-10T07:21:29.509Z,16.13
2018-06-10T07:23:57.819Z,16.37
2018-06-10T07:26:26.152Z,27.03
2018-06-10T07:28:54.213Z,14.27
2018-06-10T07:31:22.538Z,18.53
2018-06-10T07:33:50.849Z,18.60
2018-06-10T07:36:19.181Z,15.30
2018-06-10T07:38:47.489Z,11.00
2018-06-10T07:41:15.821Z,17.37
2018-06-10T07:43:44.130Z,15.27
2018-06-10T07:46:12.453Z,17.80
2018-06-10T07:48:40.757Z,11.50
2018-06-10T07:51:09.090Z,16.50
2018-06-10T07:53:37.401Z,15.23
2018-06-10T07:56:05.785Z,23.83
2018-06-10T07:58:34.097Z,15.77
2018-06-10T08:01:02.528Z,15.90
2018-06-10T08:03:30.961Z,28.77
2018-06-10T08:06:00.081Z,20.13
2018-06-10T08:08:28.401Z,17.37
2018-06-10T08:10:56.780Z,18.47
2018-06-10T08:13:25.082Z,20.20
2018-06-10T08:15:53.413Z,13.70
2018-06-10T08:18:21.725Z,27.93
2018-06-10T08:20:50.061Z,22.03
2018-06-10T08:23:18.388Z,18.60
2018-06-10T08:25:46.727Z,21.77
2018-06-10T08:28:15.044Z,22.97
2018-06-10T08:30:43.369Z,20.17
2018-06-10T08:33:11.693Z,20.90
2018-06-10T08:35:40.026Z,16.50
2018-06-10T08:38:08.390Z,20.37
2018-06-10T08:40:36.713Z,15.30
2018-06-10T08:43:05.026Z,19.93
2018-06-10T08:45:33.346Z,21.43
2018-06-10T08:48:01.435Z,23.57
2018-06-10T08:50:29.756Z,21.53
2018-06-10T08:52:58.084Z,17.53
2018-06-10T08:55:26.402Z,24.23
2018-06-10T08:57:54.733Z,16.00
2018-06-10T09:00:23.048Z,28.33
2018-06-10T09:02:51.450Z,24.73
2018-06-10T09:05:19.746Z,24.17
2018-06-10T09:07:48.082Z,24.87
2018-06-10T09:10:16.426Z,21.90
2018-06-10T09:12:44.766Z,24.83
2018-06-10T09:15:13.081Z,20.73
2018-06-10T09:17:41.418Z,17.50
2018-06-10T09:20:09.487Z,20.13
2018-06-10T09:22:37.843Z,20.27
2018-06-10T09:25:06.349Z,19.10
2018-06-10T09:27:34.798Z,22.57
2018-06-10T09:30:03.121Z,25.60
2018-06-10T09:32:31.449Z,17.57
2018-06-10T09:34:59.792Z,26.37
2018-06-10T09:37:28.345Z,19.10
2018-06-10T09:39:56.661Z,23.80
2018-06-10T09:42:25.920Z,19.87
2018-06-10T09:44:56.300Z,26.93
2018-06-10T09:47:24.460Z,22.70
2018-06-10T09:49:53.159Z,23.77
2018-06-10T09:52:22.441Z,19.77
2018-06-10T09:54:50.765Z,22.33
2018-06-10T09:57:19.109Z,20.67
2018-06-10T09:59:48.473Z,27.70
2018-06-10T10:02:16.865Z,22.13
2018-06-10T10:04:44.966Z,26.93
2018-06-10T10:07:13.323Z,23.83
2018-06-10T10:09:41.779Z,25.77
2018-06-10T10:12:10.181Z,21.73
2018-06-10T10:14:39.477Z,22.80
2018-06-10T10:17:08.625Z,22.30
2018-06-10T10:19:37.013Z,23.53
2018-06-10T10:22:06.586Z,35.63
2018-06-10T10:24:35.758Z,24.10
2018-06-10T10:27:04.137Z,27.50
2018-06-10T10:29:32.495Z,21.97
2018-06-10T10:32:00.810Z,23.53
2018-06-10T10:34:29.161Z,27.10
2018-06-10T10:36:57.479Z,23.30
2018-06-10T10:39:25.832Z,22.20
2018-06-10T10:41:54.216Z,22.10
2018-06-10T10:44:22.553Z,22.67
2018-06-10T10:46:51.337Z,23.60
2018-06-10T10:49:19.680Z,20.93
2018-06-10T10:51:48.014Z,28.87
2018-06-10T10:54:16.361Z,25.90
2018-06-10T10:56:44.693Z,23.00
2018-06-10T10:59:13.046Z,21.93
2018-06-10T11:01:41.425Z,23.20
2018-06-10T11:04:09.749Z,26.50
2018-06-10T11:06:38.069Z,26.33
2018-06-10T11:09:07.749Z,26.23
2018-06-10T11:11:36.313Z,42.27
2018-06-10T11:14:04.667Z,23.97
2018-06-10T11:16:32.980Z,20.77
2018-06-10T11:19:01.321Z,19.13
2018-06-10T11:21:29.640Z,29.60
2018-06-10T11:23:57.988Z,30.57
2018-06-10T11:26:26.338Z,34.60
2018-06-10T11:28:54.661Z,23.80
2018-06-10T11:31:23.006Z,45.10
2018-06-10T11:33:51.333Z,32.43
2018-06-10T11:36:19.676Z,37.40
2018-06-10T11:38:47.985Z,32.50
2018-06-10T11:41:16.338Z,26.23
2018-06-10T11:43:44.757Z,26.57
2018-06-10T11:46:13.086Z,29.23
2018-06-10T11:48:41.414Z,25.93
2018-06-10T11:51:09.752Z,25.37
2018-06-10T11:53:38.070Z,20.80
2018-06-10T11:56:06.409Z,27.00
2018-06-10T11:58:34.721Z,15.57
2018-06-10T12:01:03.072Z,22.77
2018-06-10T12:03:31.386Z,25.70
2018-06-10T12:06:00.297Z,21.03
2018-06-10T12:08:29.459Z,21.20
2018-06-10T12:10:58.784Z,19.93
2018-06-10T12:13:27.136Z,24.10
2018-06-10T12:15:55.490Z,28.67
2018-06-10T12:18:23.804Z,19.37
2018-06-10T12:20:52.133Z,19.73
2018-06-10T12:23:20.458Z,22.30
2018-06-10T12:25:48.789Z,26.70
2018-06-10T12:28:17.112Z,22.07
2018-06-10T12:30:45.450Z,23.13
2018-06-10T12:33:13.773Z,17.43
2018-06-10T12:35:42.118Z,20.00
2018-06-10T12:38:10.433Z,19.23
2018-06-10T12:40:38.771Z,18.00
2018-06-10T12:43:07.146Z,19.03
2018-06-10T12:45:35.491Z,17.03
2018-06-10T12:48:03.813Z,18.67
2018-06-10T12:50:32.138Z,16.90
2018-06-10T12:53:00.485Z,18.80
2018-06-10T12:55:28.801Z,15.53
2018-06-10T12:57:57.137Z,14.77
2018-06-10T13:00:25.465Z,15.30
2018-06-10T13:02:53.797Z,14.43
2018-06-10T13:05:22.113Z,17.90
2018-06-10T13:07:50.469Z,20.70
2018-06-10T13:10:18.805Z,19.40
2018-06-10T13:12:47.141Z,16.17
2018-06-10T13:15:15.458Z,17.13
2018-06-10T13:17:43.796Z,16.20
2018-06-10T13:20:12.129Z,16.80
2018-06-10T13:22:40.469Z,16.93
2018-06-10T13:25:08.793Z,17.47
2018-06-10T13:27:37.127Z,14.00
2018-06-10T13:30:05.486Z,16.97
2018-06-10T13:32:33.820Z,13.60
2018-06-10T13:35:02.158Z,15.27
2018-06-10T13:37:30.489Z,17.93
2018-06-10T13:39:58.809Z,14.80
2018-06-10T13:42:27.150Z,15.40
2018-06-10T13:44:55.474Z,15.10
2018-06-10T13:47:24.321Z,18.50
2018-06-10T13:52:29.718Z,16.27
2018-06-10T13:54:58.124Z,18.60
2018-06-10T13:57:26.469Z,14.03
2018-06-10T13:59:54.777Z,24.50
2018-06-10T14:02:23.109Z,19.23
2018-06-10T14:04:51.437Z,23.33
2018-06-10T14:07:19.785Z,19.27
2018-06-10T14:09:48.136Z,25.37
2018-06-10T14:12:16.671Z,19.27
2018-06-10T14:14:45.006Z,17.23
2018-06-10T14:17:13.322Z,16.70
2018-06-10T14:19:41.741Z,19.07
2018-06-10T14:22:10.059Z,15.80
2018-06-10T14:24:38.701Z,18.00
2018-06-10T14:27:07.033Z,17.70
2018-06-10T14:29:35.381Z,18.97
2018-06-10T14:32:03.797Z,16.17
2018-06-10T14:34:32.140Z,20.93
2018-06-10T14:37:01.476Z,18.37
2018-06-10T14:39:29.872Z,18.97
2018-06-10T14:41:58.812Z,16.97
2018-06-10T14:44:27.158Z,19.47
2018-06-10T14:46:55.489Z,24.17
2018-06-10T14:49:23.829Z,21.67
2018-06-10T14:51:52.145Z,15.50
2018-06-10T14:54:20.489Z,18.07
2018-06-10T14:56:48.822Z,17.83
2018-06-10T14:59:18.040Z,18.13
2018-06-10T15:01:47.289Z,18.17
2018-06-10T15:04:15.657Z,18.10
2018-06-10T15:06:44.719Z,17.77
2018-06-10T15:09:14.085Z,13.90
2018-06-10T15:11:42.509Z,19.10
2018-06-10T15:14:10.862Z,18.33
2018-06-10T15:16:39.184Z,14.10
2018-06-10T15:19:07.537Z,12.53
2018-06-10T15:21:35.864Z,13.30
2018-06-10T15:24:04.205Z,12.87
2018-06-10T15:26:32.529Z,10.23
2018-06-10T15:29:00.873Z,11.50
2018-06-10T15:31:29.190Z,12.47
2018-06-10T15:33:57.550Z,11.73
2018-06-10T15:36:25.888Z,12.60
2018-06-10T15:38:54.249Z,11.83
2018-06-10T15:41:22.581Z,13.37
2018-06-10T15:43:50.892Z,13.83
2018-06-10T15:46:19.225Z,13.77
2018-06-10T15:48:47.547Z,12.50
2018-06-10T15:51:15.882Z,12.17
2018-06-10T15:53:44.201Z,10.20
2018-06-10T15:56:12.547Z,11.33
2018-06-10T15:58:40.875Z,11.13
2018-06-10T16:01:09.214Z,14.97
2018-06-10T16:03:37.288Z,15.97
2018-06-10T16:06:05.626Z,10.77
2018-06-10T16:08:34.042Z,14.30
2018-06-10T16:11:02.534Z,15.30
2018-06-10T16:13:30.879Z,11.63
2018-06-10T16:15:59.205Z,16.30
2018-06-10T16:18:27.529Z,12.27
2018-06-10T16:20:55.881Z,12.67
2018-06-10T16:23:24.213Z,12.47
2018-06-10T16:25:52.838Z,15.63
2018-06-10T16:28:21.168Z,15.20
2018-06-10T16:30:49.543Z,13.50
2018-06-10T16:33:17.873Z,12.23
2018-06-10T16:35:46.223Z,12.93
2018-06-10T16:38:14.569Z,16.40
2018-06-10T16:40:42.664Z,14.97
2018-06-10T16:43:11.170Z,13.90
2018-06-10T16:45:39.525Z,17.30
2018-06-10T16:48:07.909Z,21.03
2018-06-10T16:50:36.246Z,18.43
2018-06-10T16:53:04.618Z,27.20
2018-06-10T16:55:32.965Z,62.07
2018-06-10T16:58:02.482Z,66.00
2018-06-10T17:00:30.812Z,40.60
2018-06-10T17:02:59.149Z,22.73
2018-06-10T17:05:27.459Z,25.20
2018-06-10T17:07:55.894Z,56.33
2018-06-10T17:10:24.233Z,37.00
2018-06-10T17:12:52.569Z,47.80
2018-06-10T17:15:20.877Z,49.07
2018-06-10T17:17:49.265Z,44.50
2018-06-10T17:20:17.554Z,40.90
2018-06-10T17:22:45.885Z,29.30
2018-06-10T17:25:14.247Z,33.73
2018-06-10T17:27:42.593Z,28.37
2018-06-10T17:30:10.909Z,23.60
2018-06-10T17:32:39.301Z,28.53
2018-06-10T17:35:07.593Z,23.70
2018-06-10T17:37:35.932Z,23.30
2018-06-10T17:40:04.820Z,22.80
2018-06-10T17:42:33.532Z,18.90
2018-06-10T17:45:01.845Z,21.77
2018-06-10T17:47:30.198Z,20.50
2018-06-10T17:49:58.850Z,21.97
2018-06-10T17:52:26.987Z,23.13
2018-06-10T17:54:55.277Z,17.77
2018-06-10T17:57:23.629Z,23.10
2018-06-10T17:59:51.957Z,23.47
2018-06-10T18:02:20.465Z,30.97
2018-06-10T18:04:48.851Z,24.43
2018-06-10T18:07:17.183Z,29.67
2018-06-10T18:09:45.517Z,29.57
2018-06-10T18:12:13.865Z,40.50
2018-06-10T18:14:42.193Z,33.63
2018-06-10T18:17:10.561Z,30.00
2018-06-10T18:19:38.979Z,32.00
2018-06-10T18:22:07.298Z,24.50
2018-06-10T18:24:35.638Z,23.70
2018-06-10T18:27:03.998Z,25.10
2018-06-10T18:29:32.341Z,20.97
2018-06-10T18:32:00.909Z,37.27
2018-06-10T18:34:29.258Z,19.70
2018-06-10T18:36:57.577Z,24.20
2018-06-10T18:39:25.929Z,27.10
2018-06-10T18:41:54.253Z,25.20
2018-06-10T18:44:22.602Z,42.63
2018-06-10T18:46:50.914Z,47.20
2018-06-10T18:49:19.269Z,49.70
2018-06-10T18:51:47.593Z,45.07
2018-06-10T18:54:15.937Z,30.60
2018-06-10T18:56:44.240Z,45.00
2018-06-10T18:59:12.636Z,43.63
2018-06-10T19:01:40.977Z,42.20
2018-06-10T19:04:09.325Z,30.63
2018-06-10T19:06:37.654Z,27.47
2018-06-10T19:09:08.421Z,29.23
2018-06-10T19:11:36.972Z,26.40
2018-06-10T19:14:05.430Z,29.17
2018-06-10T19:16:33.745Z,22.43
2018-06-10T19:19:02.714Z,27.97
2018-06-10T19:21:31.050Z,28.43
2018-06-10T19:23:59.394Z,36.50
2018-06-10T19:26:27.709Z,27.27
2018-06-10T19:28:56.122Z,29.27
2018-06-10T19:31:24.641Z,30.53
2018-06-10T19:33:53.023Z,24.73
2018-06-10T19:36:21.117Z,39.73
2018-06-10T19:38:49.218Z,28.33
2018-06-10T19:41:17.543Z,38.87
2018-06-10T19:43:45.864Z,31.93
2018-06-10T19:46:14.209Z,29.80
2018-06-10T19:48:42.534Z,29.13
2018-06-10T19:51:10.873Z,48.10
2018-06-10T19:53:39.182Z,33.10
2018-06-10T19:56:07.517Z,42.50
2018-06-10T19:58:35.834Z,44.83
2018-06-10T20:01:04.181Z,48.30
2018-06-10T20:03:32.573Z,52.93
2018-06-10T20:06:00.903Z,34.87
2018-06-10T20:08:29.221Z,46.60
2018-06-10T20:10:57.565Z,38.93
2018-06-10T20:13:25.882Z,38.47
2018-06-10T20:15:54.218Z,35.97
2018-06-10T20:18:22.542Z,36.83
2018-06-10T20:20:50.872Z,42.37
2018-06-10T20:23:19.196Z,51.90
2018-06-10T20:25:47.543Z,45.73
2018-06-10T20:28:15.865Z,41.10
2018-06-10T20:30:44.325Z,30.97
2018-06-10T20:33:12.561Z,27.00
2018-06-10T20:35:40.900Z,33.13
2018-06-10T20:38:09.230Z,26.83
2018-06-10T20:40:37.574Z,28.00
2018-06-10T20:43:05.893Z,29.53
2018-06-10T20:45:34.222Z,29.50
2018-06-10T20:48:02.552Z,28.60
2018-06-10T20:50:30.880Z,28.80
2018-06-10T20:52:59.241Z,27.27
2018-06-10T20:55:27.562Z,36.70
2018-06-10T20:57:55.881Z,41.47
2018-06-10T21:00:24.239Z,29.47
2018-06-10T21:02:52.569Z,29.90
2018-06-10T21:05:20.889Z,33.90
2018-06-10T21:07:49.325Z,37.57
2018-06-10T21:10:17.657Z,39.90
2018-06-10T21:12:45.998Z,39.73
2018-06-10T21:15:14.329Z,26.63
2018-06-10T21:17:42.664Z,38.77
2018-06-10T21:20:10.989Z,28.53
2018-06-10T21:22:39.333Z,26.50
2018-06-10T21:25:07.650Z,32.83
2018-06-10T21:27:36.002Z,34.67
2018-06-10T21:30:04.437Z,30.17
2018-06-10T21:32:32.789Z,48.13
2018-06-10T21:35:01.109Z,48.43
2018-06-10T21:37:29.457Z,65.37
2018-06-10T21:39:57.774Z,61.10
2018-06-10T21:42:26.113Z,51.37
2018-06-10T21:44:54.433Z,38.53
2018-06-10T21:47:22.772Z,32.50
2018-06-10T21:49:51.097Z,36.87
2018-06-10T21:52:19.440Z,43.10
2018-06-10T21:54:47.776Z,33.37
2018-06-10T21:57:15.865Z,37.60
2018-06-10T21:59:44.181Z,43.77
2018-06-10T22:02:12.605Z,34.70
2018-06-10T22:04:40.930Z,41.37
2018-06-10T22:07:09.271Z,47.23
2018-06-10T22:09:37.609Z,50.67
2018-06-10T22:12:05.949Z,28.97
2018-06-10T22:14:34.318Z,38.40
2018-06-10T22:17:02.697Z,37.90
2018-06-10T22:19:31.009Z,39.87
2018-06-10T22:21:59.321Z,38.43
2018-06-10T22:24:27.663Z,41.70
2018-06-10T22:26:55.983Z,48.10
2018-06-10T22:29:24.316Z,31.10
2018-06-10T22:31:52.643Z,30.40
2018-06-10T22:34:20.993Z,29.47
2018-06-10T22:36:49.333Z,29.20
2018-06-10T22:39:17.681Z,28.73
2018-06-10T22:41:45.736Z,28.37
2018-06-10T22:44:14.077Z,42.43
2018-06-10T22:46:42.394Z,39.47
2018-06-10T22:49:10.730Z,42.90
2018-06-10T22:51:39.049Z,32.57
2018-06-10T22:54:18.704Z,29.83
2018-06-10T22:56:47.026Z,27.40
2018-06-10T22:59:15.373Z,37.87
2018-06-10T23:01:43.698Z,28.67
2018-06-10T23:04:12.040Z,29.10
2018-06-10T23:06:40.362Z,29.80
2018-06-10T23:09:08.694Z,29.43
2018-06-10T23:11:37.033Z,35.93
2018-06-10T23:14:05.418Z,34.10
2018-06-10T23:16:33.746Z,31.23
2018-06-10T23:19:02.077Z,34.53
2018-06-10T23:21:30.394Z,31.80
2018-06-10T23:23:58.737Z,30.73
2018-06-10T23:26:27.058Z,38.00
2018-06-10T23:28:55.405Z,34.00
2018-06-10T23:31:23.733Z,36.53
2018-06-10T23:33:52.068Z,40.60
2018-06-10T23:36:20.389Z,32.40
2018-06-10T23:38:48.733Z,31.70
2018-06-10T23:41:17.055Z,49.93
2018-06-10T23:43:45.409Z,33.87
2018-06-10T23:46:13.720Z,29.43
2018-06-10T23:48:42.037Z,33.93
2018-06-10T23:51:10.386Z,41.10
2018-06-10T23:53:38.700Z,35.40
2018-06-10T23:56:07.041Z,35.57
2018-06-10T23:58:35.386Z,31.33
